createdAt,value
2019-03-20T00:00:51.748Z,0.00
2019-03-20T00:05:57.444Z,-0.10
2019-03-20T00:11:03.202Z,-0.10
2019-03-20T00:16:09.045Z,-0.20
2019-03-20T00:21:14.960Z,-0.20
2019-03-20T00:26:20.714Z,-0.30
2019-03-20T00:31:26.480Z,-0.30
2019-03-20T00:36:32.483Z,-0.30
2019-03-20T00:41:38.456Z,-0.30
2019-03-20T00:46:43.600Z,-0.20
2019-03-20T00:52:08.405Z,-0.30
2019-03-20T00:57:13.754Z,-0.50
2019-03-20T01:02:18.936Z,-0.70
2019-03-20T01:07:43.652Z,-0.80
2019-03-20T01:12:49.305Z,-0.80
2019-03-20T01:17:54.626Z,-0.90
2019-03-20T01:23:00.264Z,-0.90
2019-03-20T01:28:06.000Z,-0.90
2019-03-20T01:33:15.051Z,-1.00
2019-03-20T01:38:20.221Z,-1.10
2019-03-20T01:43:25.833Z,-1.20
2019-03-20T01:48:31.430Z,-1.30
2019-03-20T01:53:56.232Z,-1.30
2019-03-20T01:59:01.606Z,-1.40
2019-03-20T02:04:07.152Z,-1.50
2019-03-20T02:09:13.956Z,-1.50
2019-03-20T02:14:20.738Z,-1.60
2019-03-20T02:19:27.125Z,-1.60
2019-03-20T02:24:33.495Z,-1.60
2019-03-20T02:29:39.364Z,-1.70
2019-03-20T02:34:47.094Z,-1.80
2019-03-20T02:39:53.791Z,-1.90
2019-03-20T02:45:00.387Z,-2.00
2019-03-20T02:50:09.585Z,-2.00
2019-03-20T02:55:15.797Z,-2.10
2019-03-20T03:00:22.175Z,-2.20
2019-03-20T03:05:28.568Z,-2.20
2019-03-20T03:10:34.337Z,-2.30
2019-03-20T03:15:40.109Z,-2.30
2019-03-20T03:20:45.673Z,-2.30
2019-03-20T03:26:10.293Z,-2.40
2019-03-20T03:31:15.654Z,-2.50
2019-03-20T03:36:40.264Z,-2.50
2019-03-20T03:41:46.044Z,-2.60
2019-03-20T03:47:03.401Z,-2.70
2019-03-20T03:52:08.720Z,-2.80
2019-03-20T03:57:14.520Z,-2.90
2019-03-20T04:02:19.859Z,-2.90
2019-03-20T04:07:25.176Z,-3.00
2019-03-20T04:12:30.592Z,-3.00
2019-03-20T04:17:35.925Z,-2.90
2019-03-20T04:23:00.430Z,-3.00
2019-03-20T04:28:06.434Z,-3.00
2019-03-20T04:33:12.292Z,-3.10
2019-03-20T04:38:17.973Z,-3.10
2019-03-20T04:43:23.610Z,-3.10
2019-03-20T04:48:29.799Z,-3.20
2019-03-20T04:53:35.677Z,-3.20
2019-03-20T04:58:41.202Z,-3.20
2019-03-20T05:03:46.910Z,-3.20
2019-03-20T05:08:52.175Z,-3.20
2019-03-20T05:13:57.705Z,-3.20
2019-03-20T05:19:03.087Z,-3.20
2019-03-20T05:24:27.916Z,-3.20
2019-03-20T05:29:33.312Z,-3.20
2019-03-20T05:34:39.045Z,-3.20
2019-03-20T05:39:44.590Z,-3.20
2019-03-20T05:44:50.259Z,-3.10
2019-03-20T05:49:56.258Z,-3.00
2019-03-20T05:55:01.929Z,-3.00
2019-03-20T06:00:22.884Z,-3.00
2019-03-20T06:05:28.590Z,-2.90
2019-03-20T06:10:33.985Z,-2.80
2019-03-20T06:15:39.729Z,-2.80
2019-03-20T06:20:45.609Z,-2.70
2019-03-20T06:25:51.937Z,-2.50
2019-03-20T06:30:57.347Z,-2.40
2019-03-20T06:36:02.443Z,-2.30
2019-03-20T06:41:08.064Z,-2.10
2019-03-20T06:46:13.642Z,-2.00
2019-03-20T06:51:18.932Z,-1.70
2019-03-20T06:56:24.640Z,-1.50
2019-03-20T07:01:30.009Z,-1.10
2019-03-20T07:06:41.200Z,-0.80
2019-03-20T07:11:46.582Z,-0.60
2019-03-20T07:16:52.313Z,-0.30
2019-03-20T07:21:58.344Z,0.00
2019-03-20T07:27:03.539Z,0.30
2019-03-20T07:32:08.655Z,0.70
2019-03-20T07:37:13.715Z,1.00
2019-03-20T07:42:19.132Z,1.40
2019-03-20T07:47:34.882Z,1.80
2019-03-20T07:52:40.231Z,2.20
2019-03-20T07:57:45.409Z,2.70
2019-03-20T08:02:51.101Z,3.20
2019-03-20T08:08:15.918Z,3.70
2019-03-20T08:13:21.304Z,4.20
2019-03-20T08:18:26.629Z,4.70
2019-03-20T08:23:31.898Z,5.10
2019-03-20T08:28:37.245Z,5.40
2019-03-20T08:34:02.498Z,5.70
2019-03-20T08:39:07.933Z,6.00
2019-03-20T08:44:13.313Z,6.40
2019-03-20T08:49:18.364Z,6.80
2019-03-20T08:54:23.569Z,7.10
2019-03-20T08:59:29.024Z,7.30
2019-03-20T09:04:53.433Z,7.60
2019-03-20T09:09:58.791Z,7.80
2019-03-20T09:15:05.648Z,8.00
2019-03-20T09:20:13.624Z,8.30
2019-03-20T09:25:20.265Z,8.50
2019-03-20T09:30:32.081Z,8.70
2019-03-20T09:35:37.424Z,8.90
2019-03-20T09:40:42.954Z,9.00
2019-03-20T09:45:48.222Z,9.10
2019-03-20T09:50:54.154Z,9.20
2019-03-20T09:55:59.732Z,9.50
2019-03-20T10:01:04.778Z,9.70
2019-03-20T10:06:10.592Z,10.00
2019-03-20T10:11:16.224Z,10.10
2019-03-20T10:16:21.867Z,10.10
2019-03-20T10:21:46.802Z,10.40
2019-03-20T10:26:52.669Z,10.40
2019-03-20T10:31:58.308Z,10.60
2019-03-20T10:37:03.603Z,10.80
2019-03-20T10:42:09.007Z,10.90
2019-03-20T10:47:14.725Z,11.20
2019-03-20T10:52:20.443Z,11.20
2019-03-20T10:57:25.753Z,11.20
2019-03-20T11:02:31.403Z,11.30
2019-03-20T11:07:36.435Z,11.20
2019-03-20T11:12:42.020Z,11.50
2019-03-20T11:17:47.241Z,11.90
2019-03-20T11:22:52.886Z,12.10
2019-03-20T11:27:58.647Z,12.30
2019-03-20T11:33:04.181Z,12.40
2019-03-20T11:38:09.561Z,12.80
2019-03-20T11:43:14.701Z,12.80
2019-03-20T11:48:20.696Z,12.80
2019-03-20T11:53:26.346Z,12.60
2019-03-20T11:58:32.008Z,12.70
2019-03-20T12:03:37.474Z,12.70
2019-03-20T12:08:43.281Z,12.80
2019-03-20T12:13:49.201Z,12.80
2019-03-20T12:18:54.485Z,12.90
2019-03-20T12:24:00.225Z,13.10
2019-03-20T12:29:05.824Z,13.30
2019-03-20T12:34:11.627Z,13.40
2019-03-20T12:39:16.955Z,13.40
2019-03-20T12:44:22.747Z,13.30
2019-03-20T12:49:28.084Z,13.40
2019-03-20T12:54:33.746Z,13.40
2019-03-20T12:59:40.317Z,13.50
2019-03-20T13:04:47.170Z,13.40
2019-03-20T13:09:59.583Z,13.20
2019-03-20T13:15:02.053Z,13.10
2019-03-20T13:20:10.807Z,13.10
2019-03-20T13:25:17.576Z,13.00
2019-03-20T13:30:42.706Z,13.20
2019-03-20T13:35:49.537Z,13.30
2019-03-20T13:40:56.555Z,13.30
2019-03-20T13:46:02.992Z,13.20
2019-03-20T13:51:09.801Z,12.90
2019-03-20T13:56:16.474Z,13.00
2019-03-20T14:01:22.914Z,13.20
2019-03-20T14:06:29.639Z,13.20
2019-03-20T14:11:36.556Z,12.90
2019-03-20T14:16:43.210Z,12.80
2019-03-20T14:21:49.688Z,12.80
2019-03-20T14:26:56.503Z,12.80
2019-03-20T14:32:03.007Z,12.70
2019-03-20T14:37:09.889Z,12.60
2019-03-20T14:42:16.608Z,12.50
2019-03-20T14:47:23.223Z,12.40
2019-03-20T14:52:29.714Z,12.30
2019-03-20T14:57:36.155Z,12.00
2019-03-20T15:02:43.041Z,11.80
2019-03-20T15:07:49.296Z,11.80
2019-03-20T15:12:56.589Z,11.80
2019-03-20T15:18:03.390Z,11.70
2019-03-20T15:23:10.080Z,11.70
2019-03-20T15:28:16.735Z,11.50
2019-03-20T15:33:23.595Z,11.50
2019-03-20T15:38:30.077Z,11.40
2019-03-20T15:43:36.693Z,11.40
2019-03-20T15:48:43.045Z,11.40
2019-03-20T15:53:49.337Z,11.30
2019-03-20T15:58:54.870Z,11.20
2019-03-20T16:04:00.658Z,11.20
2019-03-20T16:09:09.244Z,11.10
2019-03-20T16:14:14.655Z,11.10
2019-03-20T16:19:20.231Z,11.00
2019-03-20T16:24:26.455Z,10.90
2019-03-20T16:29:32.547Z,10.90
2019-03-20T16:34:38.014Z,10.70
2019-03-20T16:39:43.657Z,10.60
2019-03-20T16:44:49.420Z,10.50
2019-03-20T16:49:55.416Z,10.40
2019-03-20T16:55:00.859Z,10.40
2019-03-20T17:00:12.722Z,10.30
2019-03-20T17:05:18.245Z,10.30
2019-03-20T17:10:38.551Z,10.10
2019-03-20T17:15:45.561Z,10.20
2019-03-20T17:20:51.562Z,10.10
2019-03-20T17:25:57.136Z,10.00
2019-03-20T17:31:03.270Z,10.00
2019-03-20T17:36:09.129Z,10.00
2019-03-20T17:41:15.033Z,9.90
2019-03-20T17:46:20.887Z,10.00
2019-03-20T17:51:26.691Z,9.80
2019-03-20T17:56:32.632Z,9.80
2019-03-20T18:01:38.354Z,9.80
2019-03-20T18:06:44.271Z,9.80
2019-03-20T18:11:50.302Z,9.80
2019-03-20T18:16:56.101Z,9.70
2019-03-20T18:22:01.275Z,9.70
2019-03-20T18:27:06.738Z,9.70
2019-03-20T18:32:12.676Z,9.60
2019-03-20T18:37:18.089Z,9.60
2019-03-20T18:42:23.485Z,9.60
2019-03-20T18:47:28.772Z,9.60
2019-03-20T18:52:34.436Z,9.60
2019-03-20T18:57:40.099Z,9.60
2019-03-20T19:02:45.717Z,9.60
2019-03-20T19:07:51.668Z,9.60
2019-03-20T19:12:58.866Z,9.60
2019-03-20T19:18:04.605Z,9.70
2019-03-20T19:23:10.577Z,9.70
2019-03-20T19:28:16.205Z,9.70
2019-03-20T19:33:21.819Z,9.70
2019-03-20T19:38:34.763Z,9.70
2019-03-20T19:43:35.565Z,9.80
2019-03-20T19:48:41.916Z,9.70
2019-03-20T19:53:47.287Z,9.70
2019-03-20T19:58:52.871Z,9.70
2019-03-20T20:03:58.243Z,9.70
2019-03-20T20:09:05.837Z,9.70
2019-03-20T20:14:11.382Z,9.60
2019-03-20T20:19:17.106Z,9.60
2019-03-20T20:24:22.449Z,9.60
2019-03-20T20:29:28.160Z,9.60
2019-03-20T20:34:34.018Z,9.60
2019-03-20T20:39:39.748Z,9.60
2019-03-20T20:44:45.566Z,9.60
2019-03-20T20:49:50.746Z,9.60
2019-03-20T20:55:19.413Z,9.60
2019-03-20T21:00:28.814Z,9.60
2019-03-20T21:05:33.920Z,9.60
2019-03-20T21:10:38.808Z,9.50
2019-03-20T21:15:45.985Z,9.50
2019-03-20T21:20:51.854Z,9.50
2019-03-20T21:26:00.066Z,9.50
2019-03-20T21:31:09.128Z,9.50
2019-03-20T21:36:20.814Z,9.50
2019-03-20T21:41:31.796Z,9.50
2019-03-20T21:46:42.770Z,9.40
2019-03-20T21:51:48.172Z,9.50
2019-03-20T21:57:14.789Z,9.50
2019-03-20T22:02:41.187Z,9.50
2019-03-20T22:07:46.434Z,9.50
2019-03-20T22:13:26.266Z,9.50
2019-03-20T22:18:59.702Z,9.60
2019-03-20T22:24:25.853Z,9.60
2019-03-20T22:29:31.400Z,9.60
2019-03-20T22:34:45.230Z,9.70
2019-03-20T22:40:17.572Z,9.70
2019-03-20T22:46:01.196Z,9.60
2019-03-20T22:51:25.867Z,9.60
2019-03-20T22:56:34.492Z,9.50
2019-03-20T23:01:54.804Z,9.50
2019-03-20T23:07:00.601Z,9.50
2019-03-20T23:12:09.174Z,9.50
2019-03-20T23:17:14.748Z,9.40
2019-03-20T23:22:20.304Z,9.40
2019-03-20T23:27:27.117Z,9.30
2019-03-20T23:32:33.126Z,9.30
2019-03-20T23:37:38.678Z,9.30
2019-03-20T23:43:08.155Z,9.30
2019-03-20T23:48:22.568Z,9.30
2019-03-20T23:53:27.706Z,9.40
2019-03-20T23:58:33.268Z,9.30
